createdAt,value
2023-08-05T00:01:59.314Z,12.63
2023-08-05T00:04:29.138Z,10.83
2023-08-05T00:06:57.662Z,10.23
2023-08-05T00:09:26.521Z,12.10
2023-08-05T00:11:55.303Z,16.17
2023-08-05T00:14:24.183Z,8.90
2023-08-05T00:16:53.584Z,11.60
2023-08-05T00:19:22.088Z,13.00
2023-08-05T00:21:51.894Z,10.20
2023-08-05T00:24:21.012Z,10.77
2023-08-05T00:26:50.572Z,15.13
2023-08-05T00:29:21.576Z,10.40
2023-08-05T00:31:50.299Z,11.13
2023-08-05T00:34:19.170Z,11.03
2023-08-05T00:36:47.988Z,9.23
2023-08-05T00:39:19.506Z,7.97
2023-08-05T00:41:47.851Z,10.23
2023-08-05T00:44:16.364Z,9.63
2023-08-05T00:46:44.986Z,9.40
2023-08-05T00:49:14.714Z,8.47
2023-08-05T00:51:43.408Z,8.20
2023-08-05T00:54:12.225Z,9.30
2023-08-05T00:56:43.569Z,12.73
2023-08-05T00:59:12.921Z,10.77
2023-08-05T01:01:43.065Z,8.17
2023-08-05T01:04:12.734Z,10.57
2023-08-05T01:06:44.537Z,11.80
2023-08-05T01:09:13.130Z,13.60
2023-08-05T01:11:43.438Z,11.37
2023-08-05T01:14:11.928Z,12.03
2023-08-05T01:16:40.552Z,11.40
2023-08-05T01:19:13.157Z,7.10
2023-08-05T01:21:51.909Z,8.33
2023-08-05T01:24:29.656Z,8.80
2023-08-05T01:27:00.146Z,7.67
2023-08-05T01:29:29.109Z,7.30
2023-08-05T01:31:59.796Z,13.90
2023-08-05T01:34:29.613Z,6.73
2023-08-05T01:36:58.363Z,7.10
2023-08-05T01:39:27.060Z,7.10
2023-08-05T01:41:55.589Z,8.37
2023-08-05T01:44:25.575Z,10.70
2023-08-05T01:46:54.270Z,11.20
2023-08-05T01:49:22.728Z,8.97
2023-08-05T01:51:51.609Z,10.13
2023-08-05T01:54:20.914Z,8.10
2023-08-05T01:56:49.512Z,8.80
2023-08-05T01:59:18.888Z,7.77
2023-08-05T02:01:50.439Z,12.47
2023-08-05T02:04:20.231Z,12.37
2023-08-05T02:06:49.401Z,7.83
2023-08-05T02:09:18.282Z,8.70
2023-08-05T02:11:47.664Z,9.00
2023-08-05T02:14:16.573Z,8.03
2023-08-05T02:16:45.338Z,10.43
2023-08-05T02:19:15.558Z,9.87
2023-08-05T02:21:44.378Z,12.20
2023-08-05T02:24:13.421Z,9.67
2023-08-05T02:26:43.274Z,8.50
2023-08-05T02:29:13.172Z,10.40
2023-08-05T02:31:43.432Z,12.70
2023-08-05T02:34:12.155Z,11.83
2023-08-05T02:36:41.843Z,7.40
2023-08-05T02:39:11.371Z,9.90
2023-08-05T02:41:41.519Z,10.67
2023-08-05T02:44:10.404Z,8.07
2023-08-05T02:46:40.540Z,9.77
2023-08-05T02:49:10.279Z,9.70
2023-08-05T02:51:39.216Z,14.57
2023-08-05T02:54:09.622Z,10.30
2023-08-05T02:56:39.023Z,7.63
2023-08-05T02:59:07.708Z,8.13
2023-08-05T03:01:38.320Z,9.10
2023-08-05T03:04:07.027Z,10.07
2023-08-05T03:06:36.463Z,8.20
2023-08-05T03:09:05.786Z,9.13
2023-08-05T03:11:35.621Z,8.60
2023-08-05T03:14:06.474Z,12.60
2023-08-05T03:16:35.858Z,8.60
2023-08-05T03:19:07.777Z,10.07
2023-08-05T03:21:36.966Z,14.97
2023-08-05T03:24:06.021Z,10.17
2023-08-05T03:26:39.243Z,7.30
2023-08-05T03:29:12.017Z,10.77
2023-08-05T03:31:42.000Z,7.23
2023-08-05T03:34:11.430Z,8.87
2023-08-05T03:36:40.347Z,11.50
2023-08-05T03:39:10.189Z,8.80
2023-08-05T03:41:41.460Z,10.70
2023-08-05T03:44:09.878Z,13.27
2023-08-05T03:46:39.228Z,8.00
2023-08-05T03:49:08.201Z,10.13
2023-08-05T03:51:37.832Z,7.20
2023-08-05T03:54:08.893Z,10.90
2023-08-05T03:56:39.502Z,12.60
2023-08-05T03:59:09.048Z,14.00
2023-08-05T04:01:39.258Z,12.40
2023-08-05T04:04:07.948Z,18.33
2023-08-05T04:06:36.911Z,12.50
2023-08-05T04:09:07.241Z,9.50
2023-08-05T04:11:37.881Z,15.53
2023-08-05T04:14:11.458Z,13.50
2023-08-05T04:16:42.108Z,9.60
2023-08-05T04:19:10.860Z,8.80
2023-08-05T04:21:46.463Z,10.43
2023-08-05T04:24:15.008Z,10.13
2023-08-05T04:26:43.923Z,16.63
2023-08-05T04:29:17.022Z,8.27
2023-08-05T04:31:45.783Z,13.53
2023-08-05T04:34:14.587Z,9.90
2023-08-05T04:36:43.505Z,8.47
2023-08-05T04:39:12.174Z,7.60
2023-08-05T04:41:40.730Z,9.77
2023-08-05T04:44:10.851Z,9.70
2023-08-05T04:46:42.191Z,8.10
2023-08-05T04:49:12.861Z,14.67
2023-08-05T04:51:41.133Z,13.97
2023-08-05T04:54:11.191Z,12.20
2023-08-05T04:56:39.834Z,12.07
2023-08-05T04:59:08.473Z,10.20
2023-08-05T05:01:38.012Z,9.80
2023-08-05T05:04:08.694Z,9.40
2023-08-05T05:06:37.284Z,12.63
2023-08-05T05:09:07.333Z,8.87
2023-08-05T05:11:35.938Z,9.53
2023-08-05T05:14:07.514Z,13.47
2023-08-05T05:16:36.111Z,14.23
2023-08-05T05:19:04.620Z,12.90
2023-08-05T05:21:35.232Z,12.00
2023-08-05T05:24:04.294Z,10.70
2023-08-05T05:26:32.763Z,12.33
2023-08-05T05:29:01.682Z,10.83
2023-08-05T05:31:30.723Z,7.63
2023-08-05T05:33:59.379Z,8.20
2023-08-05T05:36:27.807Z,10.13
2023-08-05T05:38:57.812Z,10.40
2023-08-05T05:41:27.259Z,8.93
2023-08-05T05:43:57.441Z,8.93
2023-08-05T05:46:26.438Z,9.03
2023-08-05T05:48:54.849Z,9.73
2023-08-05T05:51:23.347Z,9.50
2023-08-05T05:53:53.014Z,7.97
2023-08-05T05:56:23.267Z,17.73
2023-08-05T05:58:52.134Z,9.80
2023-08-05T06:01:20.802Z,10.20
2023-08-05T06:03:49.501Z,14.07
2023-08-05T06:06:18.582Z,16.83
2023-08-05T06:08:47.281Z,9.27
2023-08-05T06:11:16.099Z,10.00
2023-08-05T06:13:46.157Z,12.33
2023-08-05T06:16:14.748Z,12.40
2023-08-05T06:18:43.593Z,15.73
2023-08-05T06:21:11.905Z,8.47
2023-08-05T06:23:40.887Z,8.80
2023-08-05T06:26:09.184Z,11.13
2023-08-05T06:28:37.820Z,9.87
2023-08-05T06:31:08.199Z,10.47
2023-08-05T06:33:36.876Z,9.10
2023-08-05T06:36:06.539Z,10.10
2023-08-05T06:38:35.298Z,8.97
2023-08-05T06:41:04.707Z,13.03
2023-08-05T06:43:33.245Z,8.10
2023-08-05T06:46:01.956Z,7.47
2023-08-05T06:48:31.981Z,19.20
2023-08-05T06:51:01.951Z,15.27
2023-08-05T06:53:30.758Z,7.83
2023-08-05T06:56:07.698Z,8.33
2023-08-05T06:58:36.276Z,10.93
2023-08-05T07:01:05.722Z,14.70
2023-08-05T07:03:35.604Z,8.20
2023-08-05T07:06:04.015Z,10.57
2023-08-05T07:08:32.483Z,10.20
2023-08-05T07:11:01.133Z,6.53
2023-08-05T07:13:30.033Z,7.30
2023-08-05T07:16:02.826Z,8.03
2023-08-05T07:18:32.768Z,6.53
2023-08-05T07:21:02.831Z,6.50
2023-08-05T07:23:31.783Z,6.33
2023-08-05T07:26:02.977Z,5.30
2023-08-05T07:28:31.600Z,8.00
2023-08-05T07:31:08.793Z,10.30
2023-08-05T07:33:37.221Z,6.10
2023-08-05T07:36:14.221Z,6.80
2023-08-05T07:38:45.028Z,9.67
2023-08-05T07:41:15.242Z,10.10
2023-08-05T07:43:44.872Z,9.20
2023-08-05T07:46:15.362Z,10.50
2023-08-05T07:48:47.033Z,6.57
2023-08-05T07:51:19.537Z,5.57
2023-08-05T07:53:50.771Z,5.87
2023-08-05T07:56:19.573Z,6.10
2023-08-05T07:58:48.231Z,4.90
2023-08-05T08:01:21.120Z,5.07
2023-08-05T08:03:52.713Z,4.30
2023-08-05T08:06:23.249Z,6.33
2023-08-05T08:08:53.037Z,5.30
2023-08-05T08:11:21.847Z,4.47
2023-08-05T08:13:50.989Z,4.80
2023-08-05T08:16:20.020Z,5.47
2023-08-05T08:18:48.520Z,6.00
2023-08-05T08:21:17.220Z,8.77
2023-08-05T08:23:47.838Z,9.67
2023-08-05T08:26:16.660Z,5.70
2023-08-05T08:28:46.360Z,10.33
2023-08-05T08:31:14.668Z,5.77
2023-08-05T08:33:43.297Z,8.47
2023-08-05T08:36:12.231Z,3.67
2023-08-05T08:38:40.945Z,3.67
2023-08-05T08:41:10.909Z,4.50
2023-08-05T08:43:41.290Z,4.37
2023-08-05T08:46:11.453Z,3.50
2023-08-05T08:48:41.442Z,3.20
2023-08-05T08:51:11.353Z,3.70
2023-08-05T08:53:40.679Z,3.50
2023-08-05T08:56:10.988Z,28.70
2023-08-05T08:58:40.384Z,4.90
2023-08-05T09:01:10.749Z,3.93
2023-08-05T09:03:41.432Z,4.57
2023-08-05T09:06:09.868Z,4.47
2023-08-05T09:08:38.622Z,4.67
2023-08-05T09:11:06.998Z,2.93
2023-08-05T09:13:37.105Z,2.60
2023-08-05T09:16:06.071Z,7.00
2023-08-05T09:18:35.286Z,3.33
2023-08-05T09:21:04.335Z,6.37
2023-08-05T09:23:32.859Z,7.33
2023-08-05T09:26:01.836Z,3.80
2023-08-05T09:28:33.733Z,3.23
2023-08-05T09:31:26.162Z,2.80
2023-08-05T09:33:55.328Z,2.50
2023-08-05T09:36:25.438Z,3.63
2023-08-05T09:39:07.589Z,4.30
2023-08-05T09:41:43.103Z,4.37
2023-08-05T09:44:13.528Z,3.23
2023-08-05T09:46:44.966Z,2.07
2023-08-05T09:49:16.061Z,5.90
2023-08-05T09:51:46.909Z,2.13
2023-08-05T09:54:17.343Z,2.10
2023-08-05T09:56:48.604Z,3.33
2023-08-05T09:59:18.346Z,1.90
2023-08-05T10:01:49.372Z,3.27
2023-08-05T10:04:18.871Z,3.37
2023-08-05T10:06:50.161Z,1.60
2023-08-05T10:09:19.164Z,6.93
2023-08-05T10:11:51.461Z,2.53
2023-08-05T10:14:21.748Z,2.00
2023-08-05T10:16:52.394Z,2.30
2023-08-05T10:19:30.024Z,3.77
2023-08-05T10:22:10.862Z,1.40
2023-08-05T10:24:55.840Z,2.40
2023-08-05T10:27:38.938Z,3.47
2023-08-05T10:30:13.648Z,1.50
2023-08-05T10:32:55.111Z,1.90
2023-08-05T10:35:27.707Z,2.30
2023-08-05T10:38:09.748Z,2.80
2023-08-05T10:41:01.883Z,1.90
2023-08-05T10:43:36.934Z,2.97
2023-08-05T10:46:18.512Z,1.70
2023-08-05T10:48:51.025Z,1.87
2023-08-05T10:51:21.361Z,1.80
2023-08-05T10:54:02.377Z,1.50
2023-08-05T10:56:37.431Z,1.37
2023-08-05T10:59:07.484Z,1.77
2023-08-05T11:02:00.881Z,3.60
2023-08-05T11:04:33.774Z,1.53
2023-08-05T11:07:04.850Z,2.03
2023-08-05T11:09:36.141Z,1.63
2023-08-05T11:12:05.355Z,1.40
2023-08-05T11:14:34.874Z,2.00
2023-08-05T11:17:07.063Z,4.30
2023-08-05T11:19:54.444Z,2.87
2023-08-05T11:22:30.645Z,1.40
2023-08-05T11:25:00.337Z,1.70
2023-08-05T11:27:34.925Z,1.80
2023-08-05T11:30:14.646Z,2.30
2023-08-05T11:33:01.113Z,1.43
2023-08-05T11:35:30.915Z,2.60
2023-08-05T11:37:59.372Z,2.90
2023-08-05T11:40:28.079Z,1.40
2023-08-05T11:42:58.723Z,2.40
2023-08-05T11:45:27.613Z,2.00
2023-08-05T11:47:57.186Z,1.57
2023-08-05T11:50:37.659Z,1.47
2023-08-05T11:53:08.311Z,2.20
2023-08-05T11:55:41.076Z,1.30
2023-08-05T11:58:09.593Z,5.37
2023-08-05T12:00:38.227Z,1.67
2023-08-05T12:03:07.882Z,1.37
2023-08-05T12:05:37.867Z,2.10
2023-08-05T12:08:06.308Z,2.30
2023-08-05T12:10:35.371Z,1.47
2023-08-05T12:13:05.797Z,1.40
2023-08-05T12:15:34.570Z,1.10
2023-08-05T12:18:06.209Z,2.33
2023-08-05T12:20:38.829Z,1.37
2023-08-05T12:23:08.318Z,1.20
2023-08-05T12:25:36.724Z,1.20
2023-08-05T12:28:06.993Z,1.63
2023-08-05T12:30:35.689Z,2.67
2023-08-05T12:33:07.433Z,2.20
2023-08-05T12:35:38.661Z,1.40
2023-08-05T12:38:07.234Z,1.27
2023-08-05T12:40:35.575Z,4.37
2023-08-05T12:43:06.157Z,2.43
2023-08-05T12:45:34.615Z,1.73
2023-08-05T12:48:03.409Z,2.47
2023-08-05T12:50:32.254Z,1.13
2023-08-05T12:53:02.500Z,1.13
2023-08-05T12:55:31.024Z,1.60
2023-08-05T12:57:59.767Z,1.53
2023-08-05T13:00:28.496Z,3.07
2023-08-05T13:02:58.337Z,2.00
2023-08-05T13:05:26.879Z,1.60
2023-08-05T13:07:55.386Z,1.73
2023-08-05T13:10:25.334Z,2.87
2023-08-05T13:12:53.811Z,1.23
2023-08-05T13:15:22.545Z,1.73
2023-08-05T13:17:51.713Z,0.90
2023-08-05T13:20:20.359Z,1.37
2023-08-05T13:22:50.404Z,1.47
2023-08-05T13:25:18.905Z,1.33
2023-08-05T13:27:49.762Z,2.00
2023-08-05T13:30:18.486Z,2.00
2023-08-05T13:32:47.259Z,1.70
2023-08-05T13:35:17.203Z,1.80
2023-08-05T13:37:48.195Z,4.37
2023-08-05T13:40:19.737Z,1.30
2023-08-05T13:42:49.655Z,2.30
2023-08-05T13:45:20.171Z,2.10
2023-08-05T13:47:48.955Z,1.40
2023-08-05T13:50:20.310Z,1.70
2023-08-05T13:52:49.127Z,1.70
2023-08-05T13:55:20.653Z,1.93
2023-08-05T13:57:53.086Z,1.70
2023-08-05T14:00:22.607Z,2.20
2023-08-05T14:02:55.018Z,1.50
2023-08-05T14:05:24.343Z,1.50
2023-08-05T14:07:52.678Z,1.20
2023-08-05T14:10:21.609Z,2.33
2023-08-05T14:12:51.955Z,2.53
2023-08-05T14:15:20.521Z,1.40
2023-08-05T14:17:49.475Z,3.60
2023-08-05T14:20:20.934Z,1.50
2023-08-05T14:22:49.853Z,1.47
2023-08-05T14:25:19.001Z,2.00
2023-08-05T14:27:48.897Z,1.87
2023-08-05T14:30:30.244Z,1.77
2023-08-05T14:33:00.255Z,1.63
2023-08-05T14:35:34.741Z,2.73
2023-08-05T14:38:04.423Z,1.50
2023-08-05T14:40:35.540Z,2.00
2023-08-05T14:43:05.145Z,1.90
2023-08-05T14:45:39.764Z,1.80
2023-08-05T14:48:09.368Z,1.63
2023-08-05T14:50:41.442Z,1.33
2023-08-05T14:53:10.099Z,3.27
2023-08-05T14:55:38.918Z,1.17
2023-08-05T14:58:07.800Z,2.10
2023-08-05T15:00:38.216Z,1.20
2023-08-05T15:03:06.845Z,1.70
2023-08-05T15:05:37.604Z,2.00
2023-08-05T15:08:06.681Z,1.57
2023-08-05T15:10:35.146Z,1.63
2023-08-05T15:13:03.453Z,2.87
2023-08-05T15:15:31.879Z,2.90
2023-08-05T15:18:01.742Z,1.80
2023-08-05T15:20:30.339Z,3.10
2023-08-05T15:22:59.618Z,2.10
2023-08-05T15:25:28.458Z,1.63
2023-08-05T15:27:57.197Z,2.90
2023-08-05T15:30:25.600Z,1.67
2023-08-05T15:32:54.508Z,2.33
2023-08-05T15:35:30.112Z,1.53
2023-08-05T15:37:59.129Z,1.10
2023-08-05T15:40:27.854Z,1.20
2023-08-05T15:42:56.608Z,1.50
2023-08-05T15:45:24.976Z,1.77
2023-08-05T15:47:53.978Z,1.33
2023-08-05T15:50:24.607Z,2.97
2023-08-05T15:52:53.077Z,1.97
2023-08-05T15:55:22.881Z,2.40
2023-08-05T15:57:52.176Z,2.07
2023-08-05T16:00:21.126Z,1.80
2023-08-05T16:02:52.520Z,1.50
2023-08-05T16:05:20.952Z,2.07
2023-08-05T16:07:52.324Z,1.43
2023-08-05T16:10:24.007Z,1.30
2023-08-05T16:12:58.705Z,1.50
2023-08-05T16:15:27.591Z,1.80
2023-08-05T16:17:56.373Z,1.20
2023-08-05T16:20:24.836Z,1.53
2023-08-05T16:22:57.240Z,1.53
2023-08-05T16:25:26.172Z,1.90
2023-08-05T16:27:55.643Z,1.10
2023-08-05T16:30:24.480Z,1.20
2023-08-05T16:32:53.472Z,1.63
2023-08-05T16:35:21.844Z,1.40
2023-08-05T16:37:54.511Z,1.80
2023-08-05T16:40:24.657Z,2.37
2023-08-05T16:42:53.528Z,1.87
2023-08-05T16:45:21.683Z,1.30
2023-08-05T16:47:50.059Z,1.30
2023-08-05T16:50:18.614Z,1.57
2023-08-05T16:52:47.559Z,1.60
2023-08-05T16:55:16.194Z,5.17
2023-08-05T16:57:46.129Z,4.20
2023-08-05T17:00:15.147Z,1.10
2023-08-05T17:02:44.191Z,1.17
2023-08-05T17:05:12.815Z,2.03
2023-08-05T17:07:45.059Z,2.20
2023-08-05T17:10:15.741Z,7.53
2023-08-05T17:12:45.766Z,2.20
2023-08-05T17:15:14.492Z,1.40
2023-08-05T17:17:43.214Z,1.30
2023-08-05T17:20:12.945Z,3.20
2023-08-05T17:22:42.466Z,1.87
2023-08-05T17:25:13.068Z,1.80
2023-08-05T17:27:42.897Z,1.80
2023-08-05T17:30:13.458Z,1.90
2023-08-05T17:32:42.045Z,2.67
2023-08-05T17:35:10.792Z,1.13
2023-08-05T17:37:39.251Z,1.50
2023-08-05T17:40:10.422Z,1.30
2023-08-05T17:42:38.772Z,1.30
2023-08-05T17:45:08.390Z,1.27
2023-08-05T17:47:39.208Z,1.33
2023-08-05T17:50:08.894Z,1.13
2023-08-05T17:52:37.924Z,1.20
2023-08-05T17:55:07.775Z,1.70
2023-08-05T17:57:36.367Z,2.47
2023-08-05T18:00:05.471Z,2.10
2023-08-05T18:02:35.177Z,4.30
2023-08-05T18:05:07.488Z,2.60
2023-08-05T18:07:35.775Z,2.20
2023-08-05T18:10:05.697Z,2.60
2023-08-05T18:12:34.361Z,2.57
2023-08-05T18:15:03.662Z,2.97
2023-08-05T18:17:33.763Z,2.00
2023-08-05T18:20:05.818Z,2.53
2023-08-05T18:22:34.192Z,3.03
2023-08-05T18:25:04.296Z,4.83
2023-08-05T18:27:35.050Z,4.83
2023-08-05T18:30:03.857Z,3.57
2023-08-05T18:32:32.359Z,3.77
2023-08-05T18:35:01.226Z,7.27
2023-08-05T18:37:31.469Z,5.70
2023-08-05T18:40:00.622Z,7.30
2023-08-05T18:42:32.381Z,3.70
2023-08-05T18:45:01.504Z,2.47
2023-08-05T18:47:30.310Z,2.17
2023-08-05T18:49:58.795Z,2.70
2023-08-05T18:52:27.358Z,3.10
2023-08-05T18:54:57.641Z,4.53
2023-08-05T18:57:26.498Z,6.90
2023-08-05T18:59:55.053Z,2.50
2023-08-05T19:02:25.341Z,3.57
2023-08-05T19:04:54.234Z,4.53
2023-08-05T19:07:23.045Z,5.47
2023-08-05T19:09:51.494Z,2.17
2023-08-05T19:12:21.924Z,3.97
2023-08-05T19:14:51.240Z,3.03
2023-08-05T19:17:19.889Z,2.37
2023-08-05T19:19:48.492Z,2.67
2023-08-05T19:22:20.431Z,3.63
2023-08-05T19:24:50.441Z,6.83
2023-08-05T19:27:23.299Z,5.43
2023-08-05T19:29:52.886Z,2.40
2023-08-05T19:32:21.966Z,2.27
2023-08-05T19:34:54.134Z,3.80
2023-08-05T19:37:22.721Z,3.73
2023-08-05T19:39:55.496Z,3.63
2023-08-05T19:42:26.044Z,3.50
2023-08-05T19:44:55.151Z,3.87
2023-08-05T19:47:25.147Z,3.80
2023-08-05T19:49:54.327Z,3.07
2023-08-05T19:52:22.851Z,3.23
2023-08-05T19:54:51.890Z,5.60
2023-08-05T19:57:20.683Z,6.57
2023-08-05T19:59:51.034Z,5.03
2023-08-05T20:02:19.716Z,6.53
2023-08-05T20:04:48.648Z,6.77
2023-08-05T20:07:17.469Z,4.10
2023-08-05T20:09:46.344Z,5.17
2023-08-05T20:12:15.703Z,7.13
2023-08-05T20:14:44.398Z,5.87
2023-08-05T20:17:14.515Z,5.90
2023-08-05T20:19:43.303Z,8.10
2023-08-05T20:22:11.944Z,7.70
2023-08-05T20:24:41.337Z,6.87
2023-08-05T20:27:10.044Z,4.90
2023-08-05T20:29:43.365Z,8.50
2023-08-05T20:32:13.524Z,4.57
2023-08-05T20:34:44.179Z,3.53
2023-08-05T20:37:14.415Z,4.63
2023-08-05T20:39:42.941Z,3.60
2023-08-05T20:42:14.851Z,3.23
2023-08-05T20:44:43.278Z,3.23
2023-08-05T20:47:14.790Z,4.73
2023-08-05T20:49:44.494Z,2.63
2023-08-05T20:52:14.839Z,3.20
2023-08-05T20:54:44.681Z,3.30
2023-08-05T20:57:14.114Z,3.30
2023-08-05T20:59:43.052Z,2.30
2023-08-05T21:02:13.271Z,4.10
2023-08-05T21:04:42.780Z,3.43
2023-08-05T21:07:11.470Z,3.00
2023-08-05T21:09:42.953Z,5.83
2023-08-05T21:12:11.624Z,4.03
2023-08-05T21:14:39.948Z,4.77
2023-08-05T21:17:10.730Z,3.60
2023-08-05T21:19:41.359Z,2.90
2023-08-05T21:22:09.676Z,3.73
2023-08-05T21:24:38.246Z,4.93
2023-08-05T21:27:07.978Z,9.03
2023-08-05T21:29:37.061Z,7.37
2023-08-05T21:32:07.240Z,7.90
2023-08-05T21:34:35.971Z,7.90
2023-08-05T21:37:06.423Z,4.00
2023-08-05T21:39:35.660Z,5.93
2023-08-05T21:42:05.608Z,4.00
2023-08-05T21:44:34.258Z,3.00
2023-08-05T21:47:04.017Z,1.90
2023-08-05T21:49:36.298Z,1.33
2023-08-05T21:52:07.788Z,1.37
2023-08-05T21:54:36.105Z,1.30
2023-08-05T21:57:05.204Z,1.67
2023-08-05T21:59:33.737Z,1.40
2023-08-05T22:02:02.540Z,2.50
2023-08-05T22:04:32.905Z,1.70
2023-08-05T22:07:01.591Z,1.43
2023-08-05T22:09:31.507Z,1.97
2023-08-05T22:12:00.287Z,2.40
2023-08-05T22:14:29.107Z,1.77
2023-08-05T22:16:58.028Z,3.40
2023-08-05T22:19:26.535Z,2.07
2023-08-05T22:21:55.400Z,2.43
2023-08-05T22:24:34.643Z,2.03
2023-08-05T22:27:10.612Z,3.60
2023-08-05T22:29:40.236Z,2.43
2023-08-05T22:32:09.851Z,1.90
2023-08-05T22:34:38.979Z,6.20
2023-08-05T22:37:09.128Z,1.90
2023-08-05T22:39:41.172Z,1.80
2023-08-05T22:42:12.665Z,4.73
2023-08-05T22:44:42.058Z,2.30
2023-08-05T22:47:10.741Z,2.23
2023-08-05T22:49:39.464Z,3.90
2023-08-05T22:52:09.087Z,1.47
2023-08-05T22:54:37.358Z,4.67
2023-08-05T22:57:07.796Z,2.57
2023-08-05T22:59:38.227Z,2.17
2023-08-05T23:02:08.235Z,3.30
2023-08-05T23:04:36.993Z,1.90
2023-08-05T23:07:06.046Z,1.53
2023-08-05T23:09:34.990Z,4.13
2023-08-05T23:12:03.399Z,4.20
2023-08-05T23:14:34.499Z,1.90
2023-08-05T23:17:04.958Z,2.43
2023-08-05T23:19:33.557Z,3.17
2023-08-05T23:22:03.469Z,1.57
2023-08-05T23:24:32.709Z,2.40
2023-08-05T23:27:01.615Z,2.00
2023-08-05T23:29:30.379Z,1.83
2023-08-05T23:31:58.652Z,2.07
2023-08-05T23:34:28.907Z,1.60
2023-08-05T23:36:58.765Z,1.87
2023-08-05T23:39:27.886Z,5.70
2023-08-05T23:41:56.613Z,3.77
2023-08-05T23:44:26.543Z,3.07
2023-08-05T23:46:55.241Z,2.00
2023-08-05T23:49:24.559Z,2.07
2023-08-05T23:51:55.303Z,2.07
2023-08-05T23:54:24.225Z,1.90
2023-08-05T23:56:53.906Z,2.57
2023-08-05T23:59:24.861Z,1.90
